Time;durP1;ratioP1;P1;durP2;ratioP2;P2;SDS_P1;SDS_P2;PMS_P1;PMS_P2;Temp;Humidity;BMP_temperature;BMP_pressure;BME280_temperature;BME280_humidity;BME280_pressure;Samples;Min_cycle;Max_cycle;Signal;HPM_P1;HPM_P2
2021/03/25 00:01:49;;;;;;;73.45;14.20;;;3.00;1.00;;;;;;5073998;28;20299;-67
2021/03/25 00:04:16;;;;;;;75.72;15.68;;;3.00;1.00;;;;;;5073495;28;20204;-67
2021/03/25 00:06:45;;;;;;;72.60;15.07;;;2.90;1.00;;;;;;5074074;28;20231;-67
2021/03/25 00:09:16;;;;;;;73.35;14.95;;;2.90;1.00;;;;;;5074068;28;20298;-67
2021/03/25 00:11:43;;;;;;;75.05;15.60;;;2.90;1.00;;;;;;5074010;28;20218;-67
2021/03/25 00:14:10;;;;;;;76.80;14.98;;;2.90;1.00;;;;;;5074221;28;20232;-67
2021/03/25 00:16:36;;;;;;;71.85;13.60;;;2.90;1.00;;;;;;5073714;28;20232;-67
2021/03/25 00:19:05;;;;;;;70.30;12.48;;;2.90;1.00;;;;;;5073886;28;20319;-67
2021/03/25 00:21:32;;;;;;;70.95;14.18;;;2.90;1.00;;;;;;5073755;28;20658;-67
2021/03/25 00:23:58;;;;;;;69.95;13.77;;;2.90;1.00;;;;;;5073576;28;20201;-67
2021/03/25 00:26:26;;;;;;;75.90;14.55;;;2.80;1.00;;;;;;5073612;28;20359;-67
2021/03/25 00:28:52;;;;;;;69.20;12.55;;;2.80;1.00;;;;;;5073295;28;20316;-67
2021/03/25 00:31:19;;;;;;;70.78;12.85;;;2.80;1.00;;;;;;5073789;28;20235;-66
2021/03/25 00:33:45;;;;;;;72.68;13.13;;;2.80;1.00;;;;;;5073399;28;20584;-67
2021/03/25 00:36:11;;;;;;;75.75;14.15;;;2.80;1.00;;;;;;5073533;28;20240;-66
2021/03/25 00:38:38;;;;;;;68.22;12.90;;;2.70;1.00;;;;;;5073377;28;20221;-67
2021/03/25 00:41:04;;;;;;;73.35;13.30;;;2.70;1.00;;;;;;5073302;28;20239;-67
2021/03/25 00:43:31;;;;;;;68.38;12.35;;;2.70;1.00;;;;;;5073065;28;20240;-67
2021/03/25 00:45:58;;;;;;;69.63;12.02;;;2.60;1.00;;;;;;5073347;28;20219;-66
2021/03/25 00:48:25;;;;;;;71.57;13.60;;;2.50;1.00;;;;;;5073233;28;20316;-66
2021/03/25 00:50:53;;;;;;;70.43;12.52;;;2.50;1.00;;;;;;5073146;28;20240;-67
2021/03/25 00:53:26;;;;;;;68.30;12.27;;;2.50;1.00;;;;;;5073148;28;20335;-67
2021/03/25 00:55:53;;;;;;;72.63;14.13;;;2.40;1.00;;;;;;5072789;28;20201;-67
2021/03/25 00:58:19;;;;;;;71.03;14.43;;;2.40;1.00;;;;;;5073306;28;20311;-67
2021/03/25 01:00:48;;;;;;;70.25;12.35;;;2.40;1.00;;;;;;5073093;28;20209;-67
2021/03/25 01:03:16;;;;;;;75.75;15.43;;;2.40;1.00;;;;;;5073027;28;20204;-66
2021/03/25 01:05:43;;;;;;;70.85;13.57;;;2.40;1.00;;;;;;5072864;28;20213;-67
2021/03/25 01:08:10;;;;;;;69.75;13.85;;;2.40;1.00;;;;;;5072833;28;20315;-68
2021/03/25 01:10:39;;;;;;;71.10;14.38;;;2.40;1.00;;;;;;5072478;28;20201;-67
2021/03/25 01:13:09;;;;;;;71.38;12.85;;;2.30;1.00;;;;;;5072756;28;20296;-67
2021/03/25 01:15:35;;;;;;;67.68;12.70;;;2.30;1.00;;;;;;5071756;28;20319;-67
2021/03/25 01:18:07;;;;;;;69.90;13.27;;;2.30;1.00;;;;;;5072742;28;20243;-67
2021/03/25 01:20:36;;;;;;;72.07;13.77;;;2.30;1.00;;;;;;5072592;28;20295;-67
2021/03/25 01:23:03;;;;;;;72.60;12.40;;;2.30;1.00;;;;;;5072179;28;20255;-67
2021/03/25 01:25:30;;;;;;;71.82;13.30;;;2.20;1.00;;;;;;5072465;28;20673;-67
2021/03/25 01:27:58;;;;;;;72.18;13.38;;;2.20;1.00;;;;;;5072416;28;20255;-67
2021/03/25 01:30:28;;;;;;;71.32;13.55;;;2.20;1.00;;;;;;5072374;28;20211;-66
2021/03/25 01:32:55;;;;;;;66.68;11.27;;;2.10;1.00;;;;;;5072324;28;20296;-67
2021/03/25 01:35:23;;;;;;;67.85;11.68;;;2.10;1.00;;;;;;5072056;28;20308;-66
2021/03/25 01:37:50;;;;;;;68.65;12.32;;;2.10;1.00;;;;;;5072089;28;20259;-67
2021/03/25 01:40:23;;;;;;;66.88;11.18;;;2.00;1.00;;;;;;5072356;28;20241;-67
2021/03/25 01:42:49;;;;;;;68.22;12.73;;;2.00;1.00;;;;;;5072306;28;20241;-66
2021/03/25 01:45:43;;;;;;;69.70;12.57;;;2.00;1.00;;;;;;5071995;28;20273;-66
2021/03/25 01:48:10;;;;;;;69.28;12.50;;;2.00;1.00;;;;;;5065445;28;20612;-67
2021/03/25 01:50:37;;;;;;;70.88;11.50;;;1.90;1.00;;;;;;5072426;28;20213;-67
2021/03/25 01:53:15;;;;;;;68.43;12.05;;;1.90;1.00;;;;;;5071753;28;20299;-67
2021/03/25 01:55:54;;;;;;;71.70;12.30;;;1.90;1.00;;;;;;5071941;28;20207;-67
2021/03/25 01:58:44;;;;;;;69.32;13.05;;;1.80;1.00;;;;;;5071877;28;20225;-66
2021/03/25 02:01:18;;;;;;;65.22;10.95;;;1.80;1.00;;;;;;5071997;28;20228;-67
2021/03/25 02:04:19;;;;;;;67.93;12.88;;;1.80;1.00;;;;;;5071893;28;20589;-68
2021/03/25 02:06:57;;;;;;;68.90;11.50;;;1.80;1.00;;;;;;5071540;28;20666;-67
2021/03/25 02:09:34;;;;;;;70.30;12.90;;;1.80;1.00;;;;;;5071884;28;20590;-66
2021/03/25 02:12:07;;;;;;;70.07;13.60;;;1.70;1.00;;;;;;5072006;28;20304;-67
2021/03/25 02:14:40;;;;;;;71.05;11.85;;;1.70;1.00;;;;;;5071748;28;20300;-67
2021/03/25 02:17:12;;;;;;;69.72;12.90;;;1.70;1.00;;;;;;5071564;28;20237;-67
2021/03/25 02:20:07;;;;;;;66.65;11.38;;;1.70;1.00;;;;;;5071973;28;20213;-67
2021/03/25 02:23:15;;;;;;;67.30;11.35;;;1.70;1.00;;;;;;5071399;28;20236;-67
2021/03/25 02:25:47;;;;;;;65.75;11.30;;;1.60;1.00;;;;;;5008953;28;20294;-67
2021/03/25 02:28:21;;;;;;;67.93;10.70;;;1.60;1.00;;;;;;5058674;28;20320;-67
2021/03/25 02:31:03;;;;;;;70.53;10.85;;;1.50;1.00;;;;;;5071509;28;20216;-67
2021/03/25 02:33:31;;;;;;;72.60;12.05;;;1.50;1.00;;;;;;5071601;28;20443;-66
2021/03/25 02:36:02;;;;;;;65.60;11.15;;;1.50;1.00;;;;;;5071256;28;20205;-67
2021/03/25 02:38:32;;;;;;;71.63;12.80;;;1.50;1.00;;;;;;5071606;28;20311;-66
2021/03/25 02:41:04;;;;;;;65.65;10.18;;;1.50;1.00;;;;;;5071686;28;20232;-67
2021/03/25 02:43:36;;;;;;;68.38;11.40;;;1.50;1.00;;;;;;5071179;28;20513;-67
2021/03/25 02:46:07;;;;;;;67.40;11.13;;;1.50;1.00;;;;;;5071298;28;20209;-67
2021/03/25 02:48:35;;;;;;;70.82;11.15;;;1.50;1.00;;;;;;5071084;28;20235;-66
2021/03/25 02:51:06;;;;;;;67.47;10.60;;;1.50;1.00;;;;;;5071178;28;20299;-67
2021/03/25 02:53:36;;;;;;;70.38;12.65;;;1.60;1.00;;;;;;5071058;28;20699;-66
2021/03/25 02:56:09;;;;;;;68.20;12.02;;;1.60;1.00;;;;;;5071252;28;20303;-66
2021/03/25 02:58:39;;;;;;;70.82;11.65;;;1.60;1.00;;;;;;5071121;28;20221;-67
2021/03/25 03:01:11;;;;;;;65.38;10.85;;;1.60;1.00;;;;;;5071310;28;20236;-67
2021/03/25 03:03:40;;;;;;;67.90;11.75;;;1.60;1.00;;;;;;5071195;28;20204;-67
2021/03/25 03:06:12;;;;;;;65.97;11.95;;;1.60;1.00;;;;;;5071150;28;20296;-67
2021/03/25 03:08:42;;;;;;;65.10;10.57;;;1.60;1.00;;;;;;5071061;28;20341;-66
2021/03/25 03:11:14;;;;;;;68.95;11.38;;;1.60;1.00;;;;;;5071250;28;20227;-67
2021/03/25 03:13:50;;;;;;;68.80;11.75;;;1.50;1.00;;;;;;5070886;28;20205;-67
2021/03/25 03:16:21;;;;;;;67.30;11.20;;;1.50;1.00;;;;;;5071227;28;20204;-67
2021/03/25 03:18:53;;;;;;;67.40;10.90;;;1.50;1.00;;;;;;5071066;28;20370;-67
2021/03/25 03:21:23;;;;;;;68.55;12.40;;;1.40;1.00;;;;;;5070944;28;20217;-67
2021/03/25 03:23:50;;;;;;;65.88;12.10;;;1.40;1.00;;;;;;5070820;28;20331;-67
2021/03/25 03:26:23;;;;;;;66.63;11.18;;;1.40;1.00;;;;;;5070798;28;20320;-67
2021/03/25 03:28:55;;;;;;;68.47;11.15;;;1.40;1.00;;;;;;5071033;28;20362;-68
2021/03/25 03:31:26;;;;;;;67.70;11.52;;;1.40;1.00;;;;;;5070859;28;20677;-67
2021/03/25 03:33:56;;;;;;;67.63;12.10;;;1.40;1.00;;;;;;5070702;28;20266;-67
2021/03/25 03:36:24;;;;;;;65.63;10.60;;;1.40;1.00;;;;;;5070624;28;20211;-67
2021/03/25 03:38:55;;;;;;;68.40;11.73;;;1.30;1.00;;;;;;5073175;28;20275;-67
2021/03/25 03:41:24;;;;;;;68.82;11.18;;;1.30;1.00;;;;;;5074775;28;20295;-67
2021/03/25 03:43:50;;;;;;;66.97;10.90;;;1.30;1.00;;;;;;5074417;28;20300;-66
2021/03/25 03:46:23;;;;;;;68.90;11.80;;;1.30;1.00;;;;;;5074191;28;20300;-67
2021/03/25 03:48:56;;;;;;;69.10;12.65;;;1.30;1.00;;;;;;5074131;28;20257;-67
2021/03/25 03:51:27;;;;;;;67.38;12.23;;;1.30;1.00;;;;;;5074311;28;20240;-67
2021/03/25 03:53:56;;;;;;;71.10;12.73;;;1.30;1.00;;;;;;5074360;28;20296;-67
2021/03/25 03:56:33;;;;;;;66.60;9.43;;;1.20;1.00;;;;;;5074380;28;20239;-67
2021/03/25 03:59:08;;;;;;;65.65;11.27;;;1.30;1.00;;;;;;5074119;28;20315;-67
2021/03/25 04:01:38;;;;;;;71.70;11.75;;;1.30;1.00;;;;;;5074116;28;20210;-67
2021/03/25 04:04:14;;;;;;;65.28;10.18;;;1.30;1.00;;;;;;5074384;28;20296;-67
2021/03/25 04:06:45;;;;;;;65.40;10.52;;;1.30;1.00;;;;;;5074095;28;20251;-67
2021/03/25 04:09:15;;;;;;;69.20;11.63;;;1.30;1.00;;;;;;5073888;28;20264;-67
2021/03/25 04:11:48;;;;;;;69.68;12.40;;;1.20;1.00;;;;;;5074142;28;20629;-66
2021/03/25 04:14:17;;;;;;;68.50;11.88;;;1.20;1.00;;;;;;5074213;28;20346;-66
2021/03/25 04:16:45;;;;;;;66.07;11.00;;;1.20;1.00;;;;;;5073961;28;20254;-66
2021/03/25 04:19:17;;;;;;;68.63;11.55;;;1.20;1.00;;;;;;5073831;28;20311;-65
2021/03/25 04:21:47;;;;;;;68.68;11.93;;;1.20;1.00;;;;;;5073892;28;20724;-67
2021/03/25 04:24:20;;;;;;;72.38;13.10;;;1.20;1.00;;;;;;5073438;28;20205;-66
2021/03/25 04:26:49;;;;;;;66.15;10.68;;;1.20;1.00;;;;;;5073758;28;20312;-66
2021/03/25 04:29:22;;;;;;;65.40;11.00;;;1.10;1.00;;;;;;5073712;28;20264;-66
2021/03/25 04:31:48;;;;;;;67.75;10.88;;;1.10;1.00;;;;;;5073669;28;20692;-67
2021/03/25 04:34:15;;;;;;;67.38;10.88;;;1.10;1.00;;;;;;5073461;28;20217;-67
2021/03/25 04:36:44;;;;;;;65.07;11.10;;;1.10;1.00;;;;;;5073379;28;20196;-65
2021/03/25 04:39:13;;;;;;;69.97;12.73;;;1.10;1.00;;;;;;5073585;28;20643;-66
2021/03/25 04:41:43;;;;;;;67.03;10.40;;;1.10;1.00;;;;;;5073634;28;20246;-65
2021/03/25 04:44:32;;;;;;;68.80;11.18;;;1.00;1.00;;;;;;5073179;28;20377;-66
2021/03/25 04:47:05;;;;;;;69.70;11.75;;;1.10;1.00;;;;;;5073224;28;20314;-67
2021/03/25 04:49:36;;;;;;;71.57;12.60;;;1.10;1.00;;;;;;5072947;28;20741;-67
2021/03/25 04:52:04;;;;;;;65.65;11.40;;;1.10;1.00;;;;;;5073050;28;20239;-66
2021/03/25 04:54:36;;;;;;;67.10;11.05;;;1.10;1.00;;;;;;5073242;28;20289;-67
2021/03/25 04:57:07;;;;;;;64.75;10.65;;;1.00;1.00;;;;;;5073192;28;20323;-67
2021/03/25 04:59:37;;;;;;;67.32;10.90;;;1.10;1.00;;;;;;5073007;28;20211;-67
2021/03/25 05:02:06;;;;;;;67.10;11.93;;;1.00;1.00;;;;;;5072793;28;20205;-66
2021/03/25 05:04:36;;;;;;;71.00;11.30;;;1.00;1.00;;;;;;5073043;28;20342;-67
2021/03/25 05:07:03;;;;;;;69.47;12.48;;;1.00;1.00;;;;;;5072671;28;20231;-66
2021/03/25 05:09:30;;;;;;;67.15;12.60;;;1.00;1.00;;;;;;5072818;28;20292;-67
2021/03/25 05:11:57;;;;;;;66.80;11.15;;;1.00;1.00;;;;;;5072696;28;20636;-67
2021/03/25 05:14:26;;;;;;;72.55;12.05;;;0.90;1.00;;;;;;5072619;28;20201;-67
2021/03/25 05:17:02;;;;;;;66.40;11.35;;;0.90;1.00;;;;;;5072764;28;20239;-67
2021/03/25 05:19:50;;;;;;;67.50;11.23;;;0.90;1.00;;;;;;5072657;28;20211;-66
2021/03/25 05:22:22;;;;;;;71.55;12.25;;;0.90;1.00;;;;;;5072526;28;20300;-67
2021/03/25 05:24:57;;;;;;;70.30;12.80;;;0.90;1.00;;;;;;5072488;28;20240;-67
2021/03/25 05:27:29;;;;;;;67.03;12.35;;;0.80;1.00;;;;;;5072343;28;20339;-67
2021/03/25 05:29:58;;;;;;;67.18;11.25;;;0.80;1.00;;;;;;5072510;28;20291;-67
2021/03/25 05:32:29;;;;;;;66.78;11.80;;;0.80;1.00;;;;;;5072328;28;20242;-67
2021/03/25 05:35:00;;;;;;;68.40;12.32;;;0.90;1.00;;;;;;5072130;28;20212;-66
2021/03/25 05:37:27;;;;;;;66.72;11.40;;;0.90;1.00;;;;;;5072169;28;20220;-67
2021/03/25 05:39:53;;;;;;;68.43;11.60;;;0.90;1.00;;;;;;5072062;28;20673;-66
2021/03/25 05:42:27;;;;;;;65.63;11.10;;;0.90;1.00;;;;;;5072305;28;20224;-67
2021/03/25 05:45:18;;;;;;;68.70;12.45;;;1.00;1.00;;;;;;5072206;28;20749;-66
2021/03/25 05:48:03;;;;;;;70.88;12.43;;;1.00;1.00;;;;;;5071817;28;20233;-67
2021/03/25 05:50:38;;;;;;;66.90;12.23;;;1.00;1.00;;;;;;5072226;28;20300;-67
2021/03/25 05:53:20;;;;;;;69.07;11.70;;;1.10;1.00;;;;;;5071937;28;20220;-67
2021/03/25 05:55:57;;;;;;;65.57;12.20;;;1.10;1.00;;;;;;5071929;28;20212;-66
2021/03/25 05:58:34;;;;;;;70.28;13.13;;;1.20;1.00;;;;;;5071795;28;20226;-67
2021/03/25 06:01:20;;;;;;;68.22;12.00;;;1.20;1.00;;;;;;5071443;28;20205;-67
2021/03/25 06:03:56;;;;;;;70.80;12.50;;;1.30;1.00;;;;;;5072236;28;20627;-67
2021/03/25 06:06:36;;;;;;;75.53;14.98;;;1.30;1.00;;;;;;5071577;28;20236;-67
2021/03/25 06:09:08;;;;;;;72.50;12.68;;;1.30;1.00;;;;;;5071840;28;20312;-65
2021/03/25 06:11:42;;;;;;;70.90;12.80;;;1.40;1.00;;;;;;5072005;28;20635;-67
2021/03/25 06:14:20;;;;;;;66.88;11.52;;;1.50;1.00;;;;;;5071492;28;20714;-67
2021/03/25 06:17:11;;;;;;;68.80;13.35;;;1.50;1.00;;;;;;5071504;28;20740;-67
2021/03/25 06:20:11;;;;;;;75.10;15.38;;;1.60;1.00;;;;;;5071730;28;20244;-67
2021/03/25 06:22:44;;;;;;;70.43;13.63;;;1.70;1.00;;;;;;5071516;28;20204;-65
2021/03/25 06:25:39;;;;;;;71.47;14.93;;;1.80;1.00;;;;;;5071469;28;20706;-66
2021/03/25 06:28:30;;;;;;;74.60;13.82;;;1.90;1.00;;;;;;5071411;28;20225;-67
2021/03/25 06:31:21;;;;;;;69.75;12.85;;;2.00;1.00;;;;;;5071598;28;20220;-67
2021/03/25 06:33:54;;;;;;;71.20;14.13;;;2.20;1.00;;;;;;5071448;28;20216;-67
2021/03/25 06:36:29;;;;;;;73.22;14.35;;;2.30;1.00;;;;;;5071797;28;20211;-67
2021/03/25 06:39:00;;;;;;;71.22;13.60;;;2.40;1.00;;;;;;5071371;28;20315;-66
2021/03/25 06:41:32;;;;;;;72.47;14.00;;;2.50;1.00;;;;;;5071673;28;20701;-65
2021/03/25 06:44:05;;;;;;;69.72;14.57;;;2.60;1.00;;;;;;5071081;28;20297;-66
2021/03/25 06:46:36;;;;;;;72.03;14.68;;;2.70;1.00;;;;;;5071348;28;20255;-65
2021/03/25 06:49:07;;;;;;;73.50;14.98;;;2.80;1.00;;;;;;5071239;28;20229;-65
2021/03/25 06:51:35;;;;;;;73.07;14.27;;;3.00;1.00;;;;;;5071259;28;20300;-65
2021/03/25 06:54:11;;;;;;;79.25;14.15;;;3.10;1.00;;;;;;5071157;28;20205;-66
2021/03/25 06:56:42;;;;;;;69.75;14.05;;;3.20;1.00;;;;;;5071334;28;20642;-65
2021/03/25 06:59:15;;;;;;;70.63;13.30;;;3.30;1.00;;;;;;5071261;28;20231;-66
2021/03/25 07:01:44;;;;;;;71.20;14.73;;;3.50;1.00;;;;;;5071188;28;20247;-66
2021/03/25 07:04:17;;;;;;;73.47;15.07;;;3.60;1.00;;;;;;5071051;28;20258;-66
2021/03/25 07:06:44;;;;;;;75.03;14.73;;;3.70;1.00;;;;;;5070948;28;20224;-66
2021/03/25 07:09:12;;;;;;;70.20;13.57;;;3.80;1.00;;;;;;5070858;28;20221;-66
2021/03/25 07:11:38;;;;;;;68.85;13.18;;;3.90;1.00;;;;;;5071629;28;20300;-65
2021/03/25 07:14:07;;;;;;;71.65;14.07;;;4.00;1.00;;;;;;5074874;28;20208;-66
2021/03/25 07:16:39;;;;;;;73.40;14.38;;;4.20;1.00;;;;;;5074815;28;20209;-66
2021/03/25 07:19:11;;;;;;;69.85;13.35;;;4.30;1.00;;;;;;5074656;28;20221;-65
2021/03/25 07:21:40;;;;;;;66.05;12.93;;;4.40;1.00;;;;;;5075033;28;20236;-66
2021/03/25 07:24:11;;;;;;;70.88;13.38;;;4.50;1.00;;;;;;5074923;28;20248;-66
2021/03/25 07:26:42;;;;;;;70.68;14.40;;;4.60;1.00;;;;;;5074872;28;20201;-66
2021/03/25 07:29:31;;;;;;;67.82;12.65;;;4.80;1.00;;;;;;5074726;28;20232;-65
2021/03/25 07:32:13;;;;;;;70.93;14.73;;;4.90;1.00;;;;;;5074379;28;20208;-66
2021/03/25 07:34:43;;;;;;;67.72;13.32;;;5.10;1.00;;;;;;5074692;28;20308;-66
2021/03/25 07:37:12;;;;;;;73.15;12.93;;;5.30;1.00;;;;;;5074501;28;20677;-66
2021/03/25 07:39:47;;;;;;;68.32;13.10;;;5.40;1.00;;;;;;5074370;28;20205;-66
2021/03/25 07:42:25;;;;;;;71.65;13.63;;;5.60;1.00;;;;;;5074228;28;20216;-66
2021/03/25 07:44:52;;;;;;;68.70;13.13;;;5.80;1.00;;;;;;5074630;28;20213;-66
2021/03/25 07:47:30;;;;;;;70.53;13.85;;;6.00;1.00;;;;;;5074194;28;20235;-67
2021/03/25 07:50:18;;;;;;;70.80;14.80;;;6.30;1.00;;;;;;5074442;28;20204;-67
2021/03/25 07:52:45;;;;;;;72.78;13.68;;;6.50;1.00;;;;;;5074038;28;20205;-67
2021/03/25 07:55:12;;;;;;;71.80;12.50;;;6.70;1.00;;;;;;5074062;28;20319;-67
2021/03/25 07:57:42;;;;;;;70.40;11.18;;;6.90;1.00;;;;;;5074083;28;20259;-67
2021/03/25 08:00:23;;;;;;;65.38;10.20;;;7.10;1.00;;;;;;5074258;28;20206;-66
2021/03/25 08:03:10;;;;;;;69.40;13.77;;;7.30;1.00;;;;;;5074028;28;20300;-67
2021/03/25 08:05:37;;;;;;;66.40;11.93;;;7.60;1.00;;;;;;5074326;28;20628;-67
2021/03/25 08:08:06;;;;;;;65.68;10.85;;;7.80;1.00;;;;;;5074035;28;20272;-67
2021/03/25 08:10:36;;;;;;;67.35;11.57;;;8.00;1.00;;;;;;5074047;28;20295;-67
2021/03/25 08:13:12;;;;;;;67.10;10.93;;;8.20;1.00;;;;;;5073734;28;20306;-67
2021/03/25 08:15:42;;;;;;;64.47;10.40;;;8.40;1.00;;;;;;5073665;28;20452;-67
2021/03/25 08:18:55;;;;;;;64.50;10.67;;;8.60;1.00;;;;;;5078225;28;20472;-66
2021/03/25 08:21:34;;;;;;;68.37;10.23;;;8.80;1.00;;;;;;5088183;28;20494;-67
2021/03/25 08:24:29;;;;;;;62.90;9.10;;;9.00;1.00;;;;;;5085592;28;20444;-67
2021/03/25 08:27:11;;;;;;;65.53;10.60;;;9.20;1.00;;;;;;5086416;28;20489;-67
2021/03/25 08:29:48;;;;;;;65.70;8.53;;;9.50;1.00;;;;;;5093906;28;20532;-67
2021/03/25 08:32:23;;;;;;;63.90;8.83;;;9.80;1.00;;;;;;5093684;28;20816;-67
2021/03/25 08:35:07;;;;;;;67.67;10.83;;;10.00;1.00;;;;;;5093818;28;20457;-67
2021/03/25 08:37:53;;;;;;;63.60;9.90;;;10.20;1.00;;;;;;5093797;28;20472;-67
2021/03/25 08:40:24;;;;;;;63.60;8.80;;;10.50;1.00;;;;;;5093816;28;20453;-67
2021/03/25 08:42:55;;;;;;;63.37;8.70;;;10.60;1.00;;;;;;5093405;28;20485;-67
2021/03/25 08:45:28;;;;;;;64.17;9.27;;;10.70;1.00;;;;;;5093718;28;20467;-67
2021/03/25 08:48:01;;;;;;;61.47;7.97;;;10.90;1.00;;;;;;5093459;28;20497;-67
2021/03/25 08:50:43;;;;;;;62.43;8.00;;;11.10;1.00;;;;;;5093406;28;20957;-67
2021/03/25 08:53:24;;;;;;;66.13;8.70;;;11.30;1.00;;;;;;5093173;28;20945;-67
2021/03/25 08:55:52;;;;;;;66.03;8.47;;;11.50;1.00;;;;;;5093312;28;20453;-67
2021/03/25 08:58:20;;;;;;;62.40;8.00;;;11.70;1.00;;;;;;5093255;28;20488;-67
2021/03/25 09:00:50;;;;;;;61.57;7.80;;;11.80;1.00;;;;;;5093238;28;20450;-67
2021/03/25 09:03:23;;;;;;;64.20;7.53;;;12.00;1.00;;;;;;5093058;28;20556;-67
2021/03/25 09:05:59;;;;;;;65.10;8.37;;;12.20;1.00;;;;;;5093035;28;20507;-67
2021/03/25 09:08:27;;;;;;;65.80;7.37;;;12.40;1.00;;;;;;5093124;28;20565;-67
2021/03/25 09:10:56;;;;;;;61.63;7.17;;;12.60;1.00;;;;;;5093455;28;20446;-67
2021/03/25 09:13:26;;;;;;;63.93;7.83;;;12.80;1.00;;;;;;5092811;28;21018;-67
2021/03/25 09:15:56;;;;;;;61.00;6.90;;;12.90;1.00;;;;;;5093039;28;20892;-67
2021/03/25 09:18:25;;;;;;;62.37;7.43;;;13.00;1.00;;;;;;5093031;28;20482;-67
2021/03/25 09:20:54;;;;;;;62.47;6.83;;;13.20;1.00;;;;;;5093003;28;20446;-67
2021/03/25 09:23:45;;;;;;;64.27;7.40;;;13.40;1.00;;;;;;5092835;28;20446;-67
2021/03/25 09:26:49;;;;;;;61.90;8.17;;;13.70;1.00;;;;;;5092851;28;20453;-67
2021/03/25 09:29:16;;;;;;;61.00;7.37;;;13.90;1.00;;;;;;5092366;28;20441;-67
2021/03/25 09:32:30;;;;;;;62.63;7.00;;;14.10;1.00;;;;;;5092770;28;20537;-67
2021/03/25 09:34:56;;;;;;;65.10;7.80;;;14.40;1.00;;;;;;5092042;28;20511;-67
2021/03/25 09:37:24;;;;;;;61.20;6.83;;;14.80;1.00;;;;;;5092087;28;20553;-67
2021/03/25 09:40:14;;;;;;;62.57;7.77;;;15.00;1.00;;;;;;5092697;28;20474;-67
2021/03/25 09:42:42;;;;;;;61.30;7.13;;;15.30;1.00;;;;;;5092869;28;20475;-68
2021/03/25 09:45:31;;;;;;;63.33;7.97;;;15.70;1.00;;;;;;5092328;28;20466;-68
2021/03/25 09:48:01;;;;;;;61.20;7.10;;;15.90;1.00;;;;;;5084334;28;20582;-65
2021/03/25 09:50:29;;;;;;;61.70;7.10;;;16.20;1.00;;;;;;5092466;28;20530;-65
2021/03/25 09:53:11;;;;;;;62.70;8.37;;;16.50;1.00;;;;;;5092229;28;20540;-65
2021/03/25 09:55:39;;;;;;;61.60;7.00;;;16.80;1.00;;;;;;5092224;28;20453;-66
2021/03/25 09:58:26;;;;;;;62.27;7.20;;;17.10;1.00;;;;;;5092397;28;20548;-66
2021/03/25 10:00:56;;;;;;;66.00;7.60;;;17.40;1.00;;;;;;5092018;28;20544;-66
2021/03/25 10:04:05;;;;;;;61.60;7.13;;;18.10;1.00;;;;;;5092165;28;20889;-66
2021/03/25 10:06:56;;;;;;;62.50;6.73;;;18.90;1.00;;;;;;5092082;28;20450;-66
2021/03/25 10:09:51;;;;;;;60.50;7.00;;;20.20;1.00;;;;;;5092129;28;20454;-67
2021/03/25 10:12:46;;;;;;;61.70;8.20;;;21.20;1.00;;;;;;5069124;28;20891;-68
2021/03/25 10:15:51;;;;;;;62.37;7.13;;;21.90;1.00;;;;;;5092323;28;20820;-67
2021/03/25 10:18:44;;;;;;;60.40;6.73;;;22.60;1.00;;;;;;5091757;28;20462;-67
2021/03/25 10:21:13;;;;;;;64.97;8.33;;;23.30;1.00;;;;;;5092060;28;20450;-67
2021/03/25 10:23:46;;;;;;;65.97;7.37;;;23.80;1.00;;;;;;5091842;28;20449;-67
2021/03/25 10:26:27;;;;;;;63.60;8.53;;;24.50;1.00;;;;;;5091645;28;20446;-67
2021/03/25 10:29:02;;;;;;;61.47;7.90;;;25.10;1.00;;;;;;5091521;28;20482;-67
2021/03/25 10:31:32;;;;;;;64.10;8.60;;;25.60;1.00;;;;;;5091953;28;20451;-67
2021/03/25 10:34:04;;;;;;;66.93;7.90;;;26.20;1.00;;;;;;5091390;28;20490;-67
2021/03/25 10:36:39;;;;;;;64.00;7.40;;;26.70;1.00;;;;;;5091632;28;20451;-67
2021/03/25 10:39:15;;;;;;;61.97;7.90;;;27.40;1.00;;;;;;5091469;28;21046;-68
2021/03/25 10:41:42;;;;;;;61.60;6.83;;;27.90;1.00;;;;;;5091807;28;20511;-68
2021/03/25 10:44:20;;;;;;;62.10;7.17;;;28.30;1.00;;;;;;5091692;28;20450;-67
2021/03/25 10:46:47;;;;;;;61.13;6.83;;;28.30;1.00;;;;;;5091151;28;20510;-67
2021/03/25 10:49:18;;;;;;;60.87;6.47;;;28.50;1.00;;;;;;5091391;28;20892;-67
2021/03/25 10:51:46;;;;;;;62.57;7.20;;;28.70;1.00;;;;;;5091425;28;20918;-67
2021/03/25 10:54:23;;;;;;;65.77;8.47;;;28.80;1.00;;;;;;5091468;28;20523;-67
2021/03/25 10:56:58;;;;;;;62.60;8.40;;;29.10;1.00;;;;;;5091472;28;20446;-67
2021/03/25 10:59:26;;;;;;;63.60;8.73;;;29.20;1.00;;;;;;5091464;28;20442;-68
2021/03/25 11:01:54;;;;;;;65.43;9.23;;;29.40;1.00;;;;;;5091267;28;20442;-67
2021/03/25 11:04:23;;;;;;;62.53;9.07;;;29.60;1.00;;;;;;5091264;28;20474;-67
2021/03/25 11:06:50;;;;;;;65.00;8.87;;;29.60;1.00;;;;;;5091195;28;20442;-67
2021/03/25 11:09:21;;;;;;;63.93;9.20;;;29.50;1.00;;;;;;5091381;28;20453;-67
2021/03/25 11:11:52;;;;;;;63.87;8.97;;;29.70;1.00;;;;;;5091256;28;20452;-67
2021/03/25 11:14:29;;;;;;;64.27;10.00;;;30.00;1.00;;;;;;5091407;28;20451;-67
2021/03/25 11:17:15;;;;;;;66.40;10.37;;;30.40;1.00;;;;;;5091124;28;20535;-67
2021/03/25 11:19:42;;;;;;;67.70;10.60;;;31.10;1.00;;;;;;5091295;28;20528;-67
2021/03/25 11:22:11;;;;;;;63.47;9.73;;;31.30;1.00;;;;;;5091233;28;20836;-68
2021/03/25 11:24:39;;;;;;;64.10;9.57;;;31.40;1.00;;;;;;5091183;28;20538;-67
2021/03/25 11:27:11;;;;;;;61.80;8.87;;;31.40;1.00;;;;;;5091029;28;21011;-67
2021/03/25 11:29:40;;;;;;;64.20;9.83;;;31.50;1.00;;;;;;5091280;28;20567;-67
2021/03/25 11:32:13;;;;;;;61.87;8.47;;;31.70;1.00;;;;;;5091135;28;20449;-67
2021/03/25 11:34:41;;;;;;;62.37;7.93;;;31.10;1.00;;;;;;5091105;28;20464;-68
2021/03/25 11:37:21;;;;;;;64.70;9.57;;;31.00;1.00;;;;;;5090952;28;20506;-67
2021/03/25 11:40:01;;;;;;;65.03;9.60;;;31.50;1.00;;;;;;5090807;28;20531;-67
2021/03/25 11:42:30;;;;;;;64.53;9.30;;;32.10;1.00;;;;;;5091067;28;20576;-67
2021/03/25 11:44:57;;;;;;;63.87;9.47;;;32.90;1.00;;;;;;5090997;28;20529;-68
2021/03/25 11:47:42;;;;;;;64.70;9.80;;;33.40;1.00;;;;;;5090942;28;20642;-65
2021/03/25 11:50:25;;;;;;;64.47;10.33;;;33.00;1.00;;;;;;5090771;28;20827;-67
2021/03/25 11:52:55;;;;;;;63.80;10.00;;;33.30;1.00;;;;;;5088117;28;20963;-66
2021/03/25 11:55:26;;;;;;;63.30;9.53;;;33.50;1.00;;;;;;5090926;28;20537;-66
2021/03/25 11:57:54;;;;;;;65.37;10.80;;;33.50;1.00;;;;;;5090964;28;20489;-67
2021/03/25 12:00:23;;;;;;;63.37;10.13;;;33.60;1.00;;;;;;5093653;28;20960;-66
2021/03/25 12:02:52;;;;;;;65.30;10.17;;;34.10;1.00;;;;;;5094372;28;20457;-66
2021/03/25 12:05:41;;;;;;;64.27;9.90;;;35.00;1.00;;;;;;5094525;28;20899;-67
2021/03/25 12:08:23;;;;;;;65.23;10.33;;;35.30;1.00;;;;;;5094319;28;20486;-66
2021/03/25 12:11:03;;;;;;;63.87;9.83;;;35.10;1.00;;;;;;5094285;28;20522;-67
2021/03/25 12:13:30;;;;;;;64.97;10.93;;;35.70;1.00;;;;;;5094201;28;20458;-66
2021/03/25 12:15:57;;;;;;;63.00;9.50;;;36.00;1.00;;;;;;5094180;28;20537;-67
2021/03/25 12:18:27;;;;;;;62.90;9.70;;;35.80;1.00;;;;;;5094101;28;20491;-67
2021/03/25 12:20:56;;;;;;;62.33;9.77;;;36.00;1.00;;;;;;5094063;28;20545;-67
2021/03/25 12:23:24;;;;;;;63.00;9.50;;;36.70;1.00;;;;;;5093784;28;20475;-67
2021/03/25 12:25:52;;;;;;;64.27;9.13;;;37.30;1.00;;;;;;5093805;28;20486;-67
2021/03/25 12:28:20;;;;;;;65.07;10.03;;;37.40;1.00;;;;;;5093832;28;20868;-66
2021/03/25 12:30:46;;;;;;;61.57;8.87;;;37.30;1.00;;;;;;5094046;28;20541;-67
2021/03/25 12:33:19;;;;;;;63.33;9.30;;;37.30;1.00;;;;;;5093987;28;20541;-67
2021/03/25 12:35:45;;;;;;;62.63;9.70;;;37.00;1.00;;;;;;5093966;28;20549;-67
2021/03/25 12:38:12;;;;;;;66.13;9.77;;;37.00;1.00;;;;;;5093382;28;20495;-67
2021/03/25 12:40:38;;;;;;;62.00;9.00;;;37.20;1.00;;;;;;5093681;28;20478;-67
2021/03/25 12:43:05;;;;;;;63.53;9.43;;;37.20;1.00;;;;;;5093635;28;20442;-67
2021/03/25 12:45:34;;;;;;;63.20;10.97;;;36.80;1.00;;;;;;5093791;28;20453;-67
2021/03/25 12:48:01;;;;;;;63.10;9.57;;;36.50;1.00;;;;;;5093450;28;21006;-67
2021/03/25 12:50:29;;;;;;;62.40;9.57;;;36.40;1.00;;;;;;5093359;28;20485;-66
2021/03/25 12:52:56;;;;;;;65.23;9.83;;;36.40;1.00;;;;;;5093565;28;20862;-67
2021/03/25 12:55:24;;;;;;;64.63;9.33;;;36.50;1.00;;;;;;5093673;28;20448;-67
2021/03/25 12:57:51;;;;;;;62.57;9.00;;;36.60;1.00;;;;;;5093370;28;20498;-67
2021/03/25 13:00:25;;;;;;;65.00;9.70;;;36.20;1.00;;;;;;5093334;28;20815;-67
2021/03/25 13:02:53;;;;;;;61.60;8.73;;;35.60;1.00;;;;;;5093198;28;20959;-66
2021/03/25 13:05:21;;;;;;;62.80;8.90;;;34.80;1.00;;;;;;5093028;28;20533;-68
2021/03/25 13:07:47;;;;;;;64.50;9.67;;;33.70;1.00;;;;;;5093243;28;20567;-65
2021/03/25 13:10:14;;;;;;;63.90;9.00;;;32.70;1.00;;;;;;5093084;28;20452;-66
2021/03/25 13:12:41;;;;;;;63.77;9.37;;;31.90;1.00;;;;;;5092804;28;20484;-66
2021/03/25 13:15:08;;;;;;;68.47;9.23;;;31.20;1.00;;;;;;5092947;28;20542;-66
2021/03/25 13:17:35;;;;;;;62.73;8.80;;;30.50;1.00;;;;;;5092797;28;20506;-66